Time;durP1;ratioP1;P1;durP2;ratioP2;P2;SDS_P1;SDS_P2;PMS_P1;PMS_P2;Temp;Humidity;BMP_temperature;BMP_pressure;BME280_temperature;BME280_humidity;BME280_pressure;Samples;Min_cycle;Max_cycle;Signal;HPM_P1;HPM_P2
2023/09/21 00:01:19;;;;;;;5.63;1.95;;;;;;;;;;5025950;28;20771;-66
2023/09/21 00:03:45;;;;;;;4.82;1.98;;;;;;;;;;5029383;28;20205;-66
2023/09/21 00:06:12;;;;;;;3.17;1.63;;;;;;;;;;5024340;28;20171;-66
2023/09/21 00:08:37;;;;;;;4.38;1.90;;;;;;;;;;5041154;23;20230;-69
2023/09/21 00:11:06;;;;;;;4.13;1.50;;;;;;;;;;5023127;28;20231;-70
2023/09/21 00:13:32;;;;;;;1.73;1.63;;;;;;;;;;5030871;28;20162;-70
2023/09/21 00:15:59;;;;;;;5.40;1.70;;;;;;;;;;5024433;28;20167;-70
2023/09/21 00:18:25;;;;;;;2.30;1.77;;;;;;;;;;5031689;28;20181;-71
2023/09/21 00:20:55;;;;;;;4.45;1.75;;;;;;;;;;5031192;28;20174;-71
2023/09/21 00:23:24;;;;;;;4.13;1.65;;;;;;;;;;5032168;28;20277;-71
2023/09/21 00:25:49;;;;;;;4.32;2.15;;;;;;;;;;5030999;28;20163;-71
2023/09/21 00:28:14;;;;;;;6.75;1.55;;;;;;;;;;5016456;28;20245;-71
2023/09/21 00:30:40;;;;;;;3.08;1.65;;;;;;;;;;5029070;28;20182;-71
2023/09/21 00:33:09;;;;;;;3.85;1.40;;;;;;;;;;5026749;28;20180;-70
2023/09/21 00:35:39;;;;;;;2.67;1.58;;;;;;;;;;5032469;28;20219;-71
2023/09/21 00:38:07;;;;;;;3.00;1.85;;;;;;;;;;5036239;28;20296;-71
2023/09/21 00:40:38;;;;;;;4.13;2.00;;;;;;;;;;5035557;28;20252;-71
2023/09/21 00:43:06;;;;;;;5.05;2.13;;;;;;;;;;5022498;28;20261;-72
2023/09/21 00:45:32;;;;;;;3.25;1.85;;;;;;;;;;5034130;28;20718;-69
2023/09/21 00:47:58;;;;;;;2.42;1.40;;;;;;;;;;5033603;28;20212;-70
2023/09/21 00:50:24;;;;;;;6.35;1.95;;;;;;;;;;5033462;28;20221;-70
2023/09/21 00:52:51;;;;;;;4.60;1.98;;;;;;;;;;5034045;28;20198;-70
2023/09/21 00:55:21;;;;;;;2.63;1.40;;;;;;;;;;5031890;28;20171;-70
2023/09/21 00:57:47;;;;;;;1.80;1.42;;;;;;;;;;5024540;28;20263;-69
2023/09/21 01:00:16;;;;;;;1.85;1.45;;;;;;;;;;5044850;28;20195;-71
2023/09/21 01:02:42;;;;;;;2.97;1.90;;;;;;;;;;5030874;28;20180;-71
2023/09/21 01:05:08;;;;;;;5.80;1.40;;;;;;;;;;5032600;28;20167;-71
2023/09/21 01:07:36;;;;;;;2.15;1.50;;;;;;;;;;5035800;28;20190;-71
2023/09/21 01:10:01;;;;;;;4.65;1.95;;;;;;;;;;5035012;28;20218;-70
2023/09/21 01:12:27;;;;;;;2.83;1.63;;;;;;;;;;5036536;28;20236;-71
2023/09/21 01:15:05;;;;;;;3.33;1.50;;;;;;;;;;5031915;28;20174;-70
2023/09/21 01:17:31;;;;;;;2.60;1.52;;;;;;;;;;5047174;28;20200;-71
2023/09/21 01:19:57;;;;;;;2.42;1.30;;;;;;;;;;5038893;28;20194;-70
2023/09/21 01:22:23;;;;;;;3.67;1.67;;;;;;;;;;5033484;28;20178;-70
2023/09/21 01:24:49;;;;;;;2.85;1.73;;;;;;;;;;5032368;28;20568;-71
2023/09/21 01:27:14;;;;;;;1.80;1.15;;;;;;;;;;5033866;28;20178;-70
2023/09/21 01:29:39;;;;;;;2.72;1.48;;;;;;;;;;5026656;28;20194;-70
2023/09/21 01:32:04;;;;;;;3.70;1.65;;;;;;;;;;5034238;28;20657;-70
2023/09/21 01:34:30;;;;;;;2.72;1.60;;;;;;;;;;5032091;28;20600;-69
2023/09/21 01:36:56;;;;;;;2.50;1.50;;;;;;;;;;5033306;28;20202;-70
2023/09/21 01:39:22;;;;;;;1.95;1.35;;;;;;;;;;5028966;28;20220;-70
2023/09/21 01:41:49;;;;;;;3.28;1.60;;;;;;;;;;5035729;28;20245;-69
2023/09/21 01:44:15;;;;;;;3.17;1.50;;;;;;;;;;5034409;28;20707;-71
2023/09/21 01:46:41;;;;;;;2.08;1.20;;;;;;;;;;5030160;28;20183;-70
2023/09/21 01:49:11;;;;;;;2.28;1.45;;;;;;;;;;5037172;28;20198;-71
2023/09/21 01:51:37;;;;;;;2.90;1.60;;;;;;;;;;5034586;28;20278;-71
2023/09/21 01:54:05;;;;;;;1.83;1.38;;;;;;;;;;5031629;28;20174;-71
2023/09/21 01:56:33;;;;;;;2.33;1.38;;;;;;;;;;5058508;28;20197;-71
2023/09/21 01:58:58;;;;;;;2.72;1.75;;;;;;;;;;5040379;28;20253;-71
2023/09/21 02:01:23;;;;;;;2.20;1.20;;;;;;;;;;5034158;28;20391;-72
2023/09/21 02:03:49;;;;;;;2.38;1.42;;;;;;;;;;5043443;28;20197;-71
2023/09/21 02:06:15;;;;;;;5.07;1.60;;;;;;;;;;5040648;28;20243;-70
2023/09/21 02:08:40;;;;;;;3.50;1.60;;;;;;;;;;5041044;28;20256;-71
2023/09/21 02:11:05;;;;;;;2.25;1.45;;;;;;;;;;5042902;28;20182;-71
2023/09/21 02:13:31;;;;;;;3.72;1.73;;;;;;;;;;5036220;28;20607;-70
2023/09/21 02:15:56;;;;;;;3.50;1.35;;;;;;;;;;5029879;28;20182;-70
2023/09/21 02:18:21;;;;;;;4.03;1.23;;;;;;;;;;5059052;28;20253;-70
2023/09/21 02:20:51;;;;;;;2.03;1.20;;;;;;;;;;5031130;28;20182;-70
2023/09/21 02:23:17;;;;;;;3.55;1.33;;;;;;;;;;5033518;28;20240;-70
2023/09/21 02:25:43;;;;;;;2.47;1.50;;;;;;;;;;5040314;28;20225;-70
2023/09/21 02:28:12;;;;;;;2.55;1.70;;;;;;;;;;5035694;28;20182;-71
2023/09/21 02:30:38;;;;;;;1.58;1.20;;;;;;;;;;5037242;28;20210;-69
2023/09/21 02:33:09;;;;;;;4.18;1.80;;;;;;;;;;5031743;28;20261;-70
2023/09/21 02:35:35;;;;;;;3.03;1.90;;;;;;;;;;5034102;28;20279;-70
2023/09/21 02:38:00;;;;;;;3.10;1.75;;;;;;;;;;5031443;28;20685;-69
2023/09/21 02:40:26;;;;;;;2.42;1.55;;;;;;;;;;5031729;28;20556;-71
2023/09/21 02:42:52;;;;;;;2.67;1.55;;;;;;;;;;5032563;28;20201;-70
2023/09/21 02:45:18;;;;;;;2.05;1.58;;;;;;;;;;5031717;28;20565;-71
2023/09/21 02:47:43;;;;;;;4.25;2.03;;;;;;;;;;5030631;28;20225;-70
2023/09/21 02:50:14;;;;;;;2.75;1.20;;;;;;;;;;5033190;28;20225;-70
2023/09/21 02:52:46;;;;;;;2.15;1.55;;;;;;;;;;5025956;28;20602;-70
2023/09/21 02:55:12;;;;;;;2.80;2.13;;;;;;;;;;5030420;28;20610;-71
2023/09/21 02:57:37;;;;;;;4.65;1.40;;;;;;;;;;5031758;28;20289;-70
2023/09/21 03:00:11;;;;;;;4.13;1.55;;;;;;;;;;5029086;28;20209;-70
2023/09/21 03:02:36;;;;;;;2.63;1.33;;;;;;;;;;5028524;28;20178;-71
2023/09/21 03:05:02;;;;;;;2.67;1.30;;;;;;;;;;5031031;28;20181;-71
2023/09/21 03:07:27;;;;;;;2.40;1.60;;;;;;;;;;5031450;28;20335;-70
2023/09/21 03:09:54;;;;;;;4.53;1.70;;;;;;;;;;5031827;28;20618;-69
2023/09/21 03:12:20;;;;;;;2.05;1.48;;;;;;;;;;5030106;28;20258;-70
2023/09/21 03:14:46;;;;;;;2.83;1.50;;;;;;;;;;5032046;28;20380;-70
2023/09/21 03:17:14;;;;;;;2.58;1.65;;;;;;;;;;5030097;28;20202;-70
2023/09/21 03:19:39;;;;;;;2.50;1.65;;;;;;;;;;5034095;28;20195;-70
2023/09/21 03:22:04;;;;;;;4.68;1.55;;;;;;;;;;5031671;28;20308;-70
2023/09/21 03:24:30;;;;;;;4.53;2.13;;;;;;;;;;5033754;28;20557;-70
2023/09/21 03:26:55;;;;;;;2.25;1.55;;;;;;;;;;5029759;28;20178;-70
2023/09/21 03:29:20;;;;;;;5.82;2.03;;;;;;;;;;5032827;28;20206;-70
2023/09/21 03:31:45;;;;;;;4.72;1.85;;;;;;;;;;5030397;28;20261;-70
2023/09/21 03:34:10;;;;;;;2.50;1.65;;;;;;;;;;5032014;28;20178;-71
2023/09/21 03:36:37;;;;;;;2.97;1.38;;;;;;;;;;5031855;28;20280;-71
2023/09/21 03:39:09;;;;;;;2.03;1.77;;;;;;;;;;5032395;28;20221;-71
2023/09/21 03:41:34;;;;;;;1.92;1.40;;;;;;;;;;5030931;28;20175;-71
2023/09/21 03:44:00;;;;;;;5.32;1.65;;;;;;;;;;5030237;28;20356;-71
2023/09/21 03:46:25;;;;;;;3.17;1.70;;;;;;;;;;5030331;28;20261;-71
2023/09/21 03:48:50;;;;;;;3.58;1.40;;;;;;;;;;5035411;28;20279;-71
2023/09/21 03:51:15;;;;;;;2.67;1.52;;;;;;;;;;5036113;28;20889;-71
2023/09/21 03:53:41;;;;;;;4.22;1.73;;;;;;;;;;5034814;28;20539;-71
2023/09/21 03:56:06;;;;;;;3.40;1.70;;;;;;;;;;5032913;28;20710;-70
2023/09/21 03:58:31;;;;;;;3.70;2.58;;;;;;;;;;5032140;28;20170;-70
2023/09/21 04:01:04;;;;;;;4.80;1.90;;;;;;;;;;5030172;28;20656;-70
2023/09/21 04:03:29;;;;;;;4.07;2.15;;;;;;;;;;5031392;28;20166;-70
2023/09/21 04:05:54;;;;;;;2.63;1.52;;;;;;;;;;5032306;28;20213;-70
2023/09/21 04:08:19;;;;;;;2.90;1.80;;;;;;;;;;5029859;28;20289;-70
2023/09/21 04:10:45;;;;;;;4.05;1.60;;;;;;;;;;5030530;28;20185;-70
2023/09/21 04:13:10;;;;;;;2.58;1.67;;;;;;;;;;5031063;28;20170;-71
2023/09/21 04:15:35;;;;;;;4.05;1.63;;;;;;;;;;5030848;28;20178;-71
2023/09/21 04:18:02;;;;;;;5.32;2.17;;;;;;;;;;5032388;28;20331;-70
2023/09/21 04:20:31;;;;;;;2.22;1.67;;;;;;;;;;5031621;28;20658;-70
2023/09/21 04:22:56;;;;;;;4.40;1.63;;;;;;;;;;5029255;28;20174;-70
2023/09/21 04:25:22;;;;;;;3.05;1.90;;;;;;;;;;5031500;28;20174;-70
2023/09/21 04:27:48;;;;;;;3.35;1.55;;;;;;;;;;5030376;28;20590;-70
2023/09/21 04:30:16;;;;;;;2.40;2.03;;;;;;;;;;5028753;28;20194;-71
2023/09/21 04:32:46;;;;;;;6.07;1.88;;;;;;;;;;5029202;28;20189;-70
2023/09/21 04:35:12;;;;;;;4.47;1.50;;;;;;;;;;5029526;28;20170;-71
2023/09/21 04:37:40;;;;;;;2.92;1.80;;;;;;;;;;5031055;28;20225;-70
2023/09/21 04:40:09;;;;;;;5.15;1.85;;;;;;;;;;5028972;28;20808;-70
2023/09/21 04:42:35;;;;;;;2.28;1.80;;;;;;;;;;5033565;28;20259;-70
2023/09/21 04:45:00;;;;;;;3.05;1.77;;;;;;;;;;5030673;28;20214;-71
2023/09/21 04:47:27;;;;;;;3.92;1.98;;;;;;;;;;5028560;28;20178;-71
2023/09/21 04:49:54;;;;;;;2.78;1.83;;;;;;;;;;5029065;28;20206;-71
2023/09/21 04:52:19;;;;;;;3.75;2.40;;;;;;;;;;5029554;28;20239;-71
2023/09/21 04:54:48;;;;;;;5.18;2.65;;;;;;;;;;5029778;28;20265;-71
2023/09/21 04:57:13;;;;;;;2.47;1.85;;;;;;;;;;5028865;28;20198;-71
2023/09/21 04:59:39;;;;;;;2.92;2.00;;;;;;;;;;5034049;28;20201;-71
2023/09/21 05:02:04;;;;;;;5.38;1.95;;;;;;;;;;5029066;28;20253;-70
2023/09/21 05:04:29;;;;;;;3.40;2.08;;;;;;;;;;5029177;28;20189;-71
2023/09/21 05:06:54;;;;;;;2.67;2.00;;;;;;;;;;5028352;28;20277;-70
2023/09/21 05:09:20;;;;;;;4.18;1.65;;;;;;;;;;5027789;28;20225;-71
2023/09/21 05:11:46;;;;;;;2.92;1.67;;;;;;;;;;5033105;28;20182;-71
2023/09/21 05:14:13;;;;;;;2.47;1.60;;;;;;;;;;5031592;28;20559;-71
2023/09/21 05:16:38;;;;;;;2.28;1.90;;;;;;;;;;5027189;28;20224;-71
2023/09/21 05:19:04;;;;;;;3.75;2.10;;;;;;;;;;5028018;28;20732;-72
2023/09/21 05:21:30;;;;;;;3.38;1.80;;;;;;;;;;5031470;28;20542;-71
2023/09/21 05:23:55;;;;;;;4.25;1.77;;;;;;;;;;5032686;28;20183;-71
2023/09/21 05:26:20;;;;;;;5.15;2.20;;;;;;;;;;5035605;28;20179;-72
2023/09/21 05:28:46;;;;;;;4.15;2.33;;;;;;;;;;5035427;28;20202;-72
2023/09/21 05:31:11;;;;;;;3.35;2.10;;;;;;;;;;5038665;28;20179;-72
2023/09/21 05:33:37;;;;;;;2.88;2.03;;;;;;;;;;5035711;28;20179;-71
2023/09/21 05:36:04;;;;;;;4.28;2.30;;;;;;;;;;5037425;28;20185;-72
2023/09/21 05:38:31;;;;;;;2.70;1.75;;;;;;;;;;5037095;28;20170;-72
2023/09/21 05:40:57;;;;;;;4.65;2.45;;;;;;;;;;5036761;28;20238;-72
2023/09/21 05:43:23;;;;;;;4.18;2.25;;;;;;;;;;5037583;28;20190;-72
2023/09/21 05:45:48;;;;;;;3.75;2.90;;;;;;;;;;5038081;28;20191;-71
2023/09/21 05:48:17;;;;;;;3.38;2.10;;;;;;;;;;5037569;28;20558;-72
2023/09/21 05:50:43;;;;;;;3.28;2.08;;;;;;;;;;5038247;28;20178;-72
2023/09/21 05:53:08;;;;;;;3.40;1.75;;;;;;;;;;5032503;28;20227;-72
2023/09/21 05:55:34;;;;;;;2.40;1.88;;;;;;;;;;5033497;28;20261;-72
2023/09/21 05:57:59;;;;;;;3.28;1.98;;;;;;;;;;5033771;28;20722;-72
2023/09/21 06:00:24;;;;;;;4.95;2.30;;;;;;;;;;5034539;28;20209;-72
2023/09/21 06:02:49;;;;;;;4.82;2.40;;;;;;;;;;5024630;28;20186;-72
2023/09/21 06:05:15;;;;;;;5.70;2.95;;;;;;;;;;5028024;28;20193;-73
2023/09/21 06:07:40;;;;;;;4.35;2.40;;;;;;;;;;5032611;28;20653;-72
2023/09/21 06:10:06;;;;;;;7.65;2.65;;;;;;;;;;5031906;23;20372;-72
2023/09/21 06:12:31;;;;;;;2.75;2.05;;;;;;;;;;5012134;28;20183;-72
2023/09/21 06:14:58;;;;;;;4.70;2.45;;;;;;;;;;5011582;28;20175;-72
2023/09/21 06:17:23;;;;;;;2.65;2.33;;;;;;;;;;5012589;28;20274;-72
2023/09/21 06:19:48;;;;;;;3.08;2.25;;;;;;;;;;4993069;28;20303;-72
2023/09/21 06:22:14;;;;;;;4.60;2.35;;;;;;;;;;4992995;28;20176;-72
2023/09/21 06:24:42;;;;;;;5.05;2.38;;;;;;;;;;4994360;28;20229;-72
2023/09/21 06:27:07;;;;;;;7.82;2.75;;;;;;;;;;4991026;28;20214;-72
2023/09/21 06:29:32;;;;;;;5.70;2.50;;;;;;;;;;4992760;28;20191;-72
2023/09/21 06:32:00;;;;;;;6.22;2.90;;;;;;;;;;4987395;28;20655;-71
2023/09/21 06:34:25;;;;;;;3.72;2.05;;;;;;;;;;4989735;28;20175;-71
2023/09/21 06:36:51;;;;;;;2.88;0.95;;;;;;;;;;4991941;28;20257;-72
2023/09/21 06:39:16;;;;;;;1.60;0.90;;;;;;;;;;4989027;28;20796;-72
2023/09/21 06:41:44;;;;;;;1.33;0.75;;;;;;;;;;4988936;28;20184;-72
2023/09/21 06:44:09;;;;;;;1.27;0.55;;;;;;;;;;4989162;28;20171;-72
2023/09/21 06:46:34;;;;;;;0.85;0.50;;;;;;;;;;5001425;28;20168;-73
2023/09/21 06:49:02;;;;;;;2.33;0.70;;;;;;;;;;4991161;28;20207;-73
2023/09/21 06:51:28;;;;;;;1.73;0.77;;;;;;;;;;4990091;28;20242;-72
2023/09/21 06:53:53;;;;;;;1.73;0.90;;;;;;;;;;4994770;28;20647;-72
2023/09/21 06:56:21;;;;;;;2.25;0.55;;;;;;;;;;4989511;28;20239;-73
2023/09/21 06:58:46;;;;;;;1.13;0.63;;;;;;;;;;4989308;28;20540;-72
2023/09/21 07:01:11;;;;;;;1.67;0.65;;;;;;;;;;4989994;28;20182;-72
2023/09/21 07:03:36;;;;;;;3.60;0.55;;;;;;;;;;4991460;28;20709;-72
2023/09/21 07:06:02;;;;;;;2.03;0.70;;;;;;;;;;4991867;28;20655;-72
2023/09/21 07:08:27;;;;;;;2.15;0.70;;;;;;;;;;4990506;28;20254;-72
2023/09/21 07:10:53;;;;;;;3.30;1.02;;;;;;;;;;4991502;28;20192;-72
2023/09/21 07:13:20;;;;;;;1.35;0.60;;;;;;;;;;4991682;28;20176;-72
2023/09/21 07:15:45;;;;;;;1.52;0.65;;;;;;;;;;4991897;28;20609;-72
2023/09/21 07:18:11;;;;;;;1.48;0.73;;;;;;;;;;4987796;28;20299;-72
2023/09/21 07:20:36;;;;;;;0.90;0.68;;;;;;;;;;4990254;28;20200;-72
2023/09/21 07:23:01;;;;;;;1.58;0.65;;;;;;;;;;4991693;28;20183;-70
2023/09/21 07:25:30;;;;;;;1.35;0.73;;;;;;;;;;4991429;28;20180;-72
2023/09/21 07:27:55;;;;;;;2.00;0.85;;;;;;;;;;4988547;28;20531;-72
2023/09/21 07:30:21;;;;;;;1.58;0.60;;;;;;;;;;4989737;28;21530;-72
2023/09/21 07:32:46;;;;;;;1.95;0.60;;;;;;;;;;4990618;28;20211;-72
2023/09/21 07:35:14;;;;;;;2.05;0.68;;;;;;;;;;4989532;28;20643;-72
2023/09/21 07:37:39;;;;;;;2.92;0.60;;;;;;;;;;4992164;28;20199;-73
2023/09/21 07:40:06;;;;;;;1.55;0.68;;;;;;;;;;4990065;28;20245;-72
2023/09/21 07:42:34;;;;;;;1.55;0.85;;;;;;;;;;4988710;28;20677;-72
2023/09/21 07:45:00;;;;;;;1.80;0.77;;;;;;;;;;4988959;28;20183;-73
2023/09/21 07:47:26;;;;;;;2.78;0.68;;;;;;;;;;4991721;28;20669;-72
2023/09/21 07:49:54;;;;;;;1.35;0.55;;;;;;;;;;4988740;28;20656;-72
2023/09/21 07:52:23;;;;;;;3.67;0.93;;;;;;;;;;4991350;28;20183;-72
2023/09/21 07:54:48;;;;;;;2.00;0.60;;;;;;;;;;4989261;28;20230;-72
2023/09/21 07:57:16;;;;;;;1.60;0.73;;;;;;;;;;4987256;28;20199;-72
2023/09/21 07:59:41;;;;;;;1.45;0.60;;;;;;;;;;4990863;28;20192;-72
2023/09/21 08:02:06;;;;;;;2.17;0.80;;;;;;;;;;4989800;28;20242;-72
2023/09/21 08:04:32;;;;;;;3.22;0.73;;;;;;;;;;4990953;28;20545;-72
2023/09/21 08:06:59;;;;;;;1.30;0.65;;;;;;;;;;4991927;28;20180;-72
2023/09/21 08:09:24;;;;;;;1.48;0.60;;;;;;;;;;4988045;28;20315;-72
2023/09/21 08:11:50;;;;;;;3.33;0.75;;;;;;;;;;4990504;28;20278;-73
2023/09/21 08:14:15;;;;;;;0.85;0.40;;;;;;;;;;4987826;28;20187;-72
2023/09/21 08:16:40;;;;;;;2.30;0.70;;;;;;;;;;4995415;28;20195;-72
2023/09/21 08:19:06;;;;;;;1.65;0.70;;;;;;;;;;4990536;28;20246;-72
2023/09/21 08:21:31;;;;;;;4.13;0.70;;;;;;;;;;4989820;28;20183;-72
2023/09/21 08:23:57;;;;;;;3.60;0.82;;;;;;;;;;4990643;28;20186;-70
2023/09/21 08:26:22;;;;;;;0.50;0.40;;;;;;;;;;4991048;28;20175;-71
2023/09/21 08:28:47;;;;;;;2.60;0.70;;;;;;;;;;4990439;28;20552;-71
2023/09/21 08:31:13;;;;;;;1.13;0.50;;;;;;;;;;4989393;28;20614;-70
2023/09/21 08:33:38;;;;;;;1.80;0.50;;;;;;;;;;4990633;28;20175;-71
2023/09/21 08:36:05;;;;;;;1.50;0.60;;;;;;;;;;4989312;28;20238;-70
2023/09/21 08:38:30;;;;;;;2.20;1.05;;;;;;;;;;4990729;28;20171;-70
2023/09/21 08:40:56;;;;;;;1.10;0.50;;;;;;;;;;4990855;28;20183;-71
2023/09/21 08:43:25;;;;;;;1.77;0.63;;;;;;;;;;4990701;28;20176;-71
2023/09/21 08:45:51;;;;;;;2.58;0.90;;;;;;;;;;4989353;28;20259;-70
2023/09/21 08:48:20;;;;;;;1.55;0.60;;;;;;;;;;4990137;28;20276;-71
2023/09/21 08:50:46;;;;;;;1.90;0.52;;;;;;;;;;4990479;28;20218;-70
2023/09/21 08:53:15;;;;;;;3.22;0.90;;;;;;;;;;4990675;28;20180;-70
2023/09/21 08:55:41;;;;;;;3.28;0.77;;;;;;;;;;4990428;28;20176;-70
2023/09/21 08:58:09;;;;;;;1.77;1.00;;;;;;;;;;4993511;28;20237;-70
2023/09/21 09:00:35;;;;;;;1.95;0.93;;;;;;;;;;4993094;28;20598;-70
2023/09/21 09:03:00;;;;;;;1.13;0.75;;;;;;;;;;4994695;28;20175;-71
2023/09/21 09:05:26;;;;;;;1.30;0.80;;;;;;;;;;4995279;28;20730;-71
2023/09/21 09:07:51;;;;;;;1.48;1.00;;;;;;;;;;4995064;28;20187;-71
2023/09/21 09:10:18;;;;;;;2.45;1.15;;;;;;;;;;4993743;28;20223;-71
2023/09/21 09:12:43;;;;;;;1.02;0.70;;;;;;;;;;4999870;28;20190;-71
2023/09/21 09:15:09;;;;;;;1.75;0.65;;;;;;;;;;4994999;28;20619;-71
2023/09/21 09:17:35;;;;;;;1.38;0.90;;;;;;;;;;4994388;28;20199;-71
2023/09/21 09:20:02;;;;;;;1.50;0.90;;;;;;;;;;4990559;28;20218;-72
2023/09/21 09:22:28;;;;;;;2.78;0.77;;;;;;;;;;4994160;28;20595;-71
2023/09/21 09:24:55;;;;;;;2.58;1.02;;;;;;;;;;4994514;28;20175;-71
2023/09/21 09:27:20;;;;;;;3.17;1.02;;;;;;;;;;4989990;28;20191;-72
2023/09/21 09:29:47;;;;;;;0.90;0.70;;;;;;;;;;4994197;28;20207;-71
2023/09/21 09:32:14;;;;;;;1.45;0.50;;;;;;;;;;4993769;28;20184;-71
2023/09/21 09:34:40;;;;;;;1.52;0.70;;;;;;;;;;4994515;28;20176;-70
2023/09/21 09:37:05;;;;;;;3.55;0.90;;;;;;;;;;4992622;28;20729;-70
2023/09/21 09:39:31;;;;;;;2.80;0.70;;;;;;;;;;4992804;28;20192;-71
2023/09/21 09:41:57;;;;;;;1.10;0.90;;;;;;;;;;4992277;28;20690;-70
2023/09/21 09:44:24;;;;;;;1.00;0.60;;;;;;;;;;4991909;28;20171;-71
2023/09/21 09:46:54;;;;;;;2.60;0.95;;;;;;;;;;4993748;28;20230;-71
2023/09/21 09:49:20;;;;;;;2.08;0.60;;;;;;;;;;4993596;28;20204;-71
2023/09/21 09:51:45;;;;;;;1.02;0.80;;;;;;;;;;4993620;28;20186;-72
2023/09/21 09:54:12;;;;;;;0.85;0.60;;;;;;;;;;4992353;28;20186;-71
2023/09/21 09:56:41;;;;;;;1.58;0.90;;;;;;;;;;4992011;28;20771;-70
2023/09/21 09:59:08;;;;;;;0.98;0.50;;;;;;;;;;4994204;28;20227;-70
2023/09/21 10:01:33;;;;;;;1.30;0.50;;;;;;;;;;4995375;28;20556;-72
2023/09/21 10:03:59;;;;;;;1.75;0.88;;;;;;;;;;4993710;28;20179;-73
2023/09/21 10:06:24;;;;;;;2.80;0.80;;;;;;;;;;4994861;28;20171;-73
2023/09/21 10:08:51;;;;;;;2.60;0.60;;;;;;;;;;4993874;28;20206;-73
2023/09/21 10:11:17;;;;;;;3.22;0.68;;;;;;;;;;4993909;28;20179;-72
2023/09/21 10:13:52;;;;;;;3.50;0.80;;;;;;;;;;4991257;28;20195;-72
2023/09/21 10:16:18;;;;;;;1.50;0.70;;;;;;;;;;4993745;28;20646;-72
2023/09/21 10:18:43;;;;;;;2.88;0.70;;;;;;;;;;4994049;28;20247;-72
2023/09/21 10:21:29;;;;;;;2.25;0.70;;;;;;;;;;4995152;28;20195;-71
2023/09/21 10:24:12;;;;;;;1.83;0.63;;;;;;;;;;4988228;28;20635;-71
2023/09/21 10:26:38;;;;;;;0.88;0.63;;;;;;;;;;5005605;28;20188;-72
2023/09/21 10:29:04;;;;;;;2.38;0.82;;;;;;;;;;4992688;28;20206;-71
2023/09/21 10:31:30;;;;;;;0.65;0.50;;;;;;;;;;4990974;28;20179;-72
2023/09/21 10:33:59;;;;;;;1.33;0.60;;;;;;;;;;4993086;28;20190;-72
2023/09/21 10:36:27;;;;;;;0.77;0.60;;;;;;;;;;4991964;28;20195;-72
2023/09/21 10:39:13;;;;;;;1.75;1.00;;;;;;;;;;4993373;28;20573;-73
2023/09/21 10:41:43;;;;;;;2.10;1.27;;;;;;;;;;4990996;28;20184;-72
2023/09/21 10:44:08;;;;;;;1.38;0.88;;;;;;;;;;5006399;28;20651;-71
2023/09/21 10:46:34;;;;;;;1.73;0.80;;;;;;;;;;4992452;28;20186;-71
2023/09/21 10:49:12;;;;;;;1.27;0.80;;;;;;;;;;4992696;28;20200;-71
2023/09/21 10:51:39;;;;;;;1.02;0.60;;;;;;;;;;4991804;28;20180;-71
2023/09/21 10:54:04;;;;;;;1.00;0.68;;;;;;;;;;4992048;28;20208;-71
2023/09/21 10:56:31;;;;;;;1.60;0.70;;;;;;;;;;4992524;28;20199;-71
2023/09/21 10:58:56;;;;;;;1.55;0.77;;;;;;;;;;4991995;28;20199;-71
2023/09/21 11:01:22;;;;;;;1.23;0.60;;;;;;;;;;4991423;28;20207;-70
2023/09/21 11:03:48;;;;;;;1.70;0.70;;;;;;;;;;4992294;28;20180;-71
2023/09/21 11:06:16;;;;;;;1.02;0.60;;;;;;;;;;5007739;28;20175;-70
2023/09/21 11:08:41;;;;;;;1.67;0.90;;;;;;;;;;4991755;28;20226;-70
2023/09/21 11:11:06;;;;;;;0.90;0.60;;;;;;;;;;4990929;28;20184;-70
2023/09/21 11:13:32;;;;;;;1.60;0.75;;;;;;;;;;4992716;28;20684;-71
2023/09/21 11:15:57;;;;;;;1.23;0.70;;;;;;;;;;4992189;28;20183;-70
2023/09/21 11:18:22;;;;;;;2.17;0.90;;;;;;;;;;4990963;28;20732;-70
2023/09/21 11:20:49;;;;;;;1.10;0.80;;;;;;;;;;4989721;28;20203;-71
2023/09/21 11:23:16;;;;;;;0.75;0.60;;;;;;;;;;4991813;28;20176;-71
2023/09/21 11:25:41;;;;;;;1.10;1.00;;;;;;;;;;4990485;28;20184;-70
2023/09/21 11:28:07;;;;;;;1.25;0.60;;;;;;;;;;4991418;28;20600;-71
2023/09/21 11:30:34;;;;;;;1.35;0.77;;;;;;;;;;4992085;28;20202;-71
2023/09/21 11:33:00;;;;;;;1.77;0.70;;;;;;;;;;4991688;28;20313;-71
2023/09/21 11:35:25;;;;;;;0.95;0.70;;;;;;;;;;4991874;28;20562;-70
2023/09/21 11:37:51;;;;;;;2.53;0.52;;;;;;;;;;4992059;28;20192;-70
2023/09/21 11:40:21;;;;;;;2.58;0.55;;;;;;;;;;4991577;28;20200;-70
2023/09/21 11:42:47;;;;;;;5.03;1.02;;;;;;;;;;4991197;28;20171;-70
2023/09/21 11:45:19;;;;;;;1.33;0.68;;;;;;;;;;4991369;28;20187;-70
2023/09/21 11:47:54;;;;;;;1.42;0.80;;;;;;;;;;4991308;28;20231;-70
2023/09/21 11:50:20;;;;;;;1.00;0.60;;;;;;;;;;4991071;28;20199;-70
2023/09/21 11:52:46;;;;;;;2.35;1.13;;;;;;;;;;4990995;28;20207;-70
2023/09/21 11:55:11;;;;;;;2.25;1.88;;;;;;;;;;4991251;28;20175;-70
2023/09/21 11:57:39;;;;;;;4.00;1.90;;;;;;;;;;4991530;28;20302;-71
2023/09/21 12:00:26;;;;;;;2.30;1.70;;;;;;;;;;4990814;28;20555;-70
2023/09/21 12:02:50;;;;;;;5.80;1.20;;;;;;;;;;4990983;28;20187;-70
2023/09/21 12:05:15;;;;;;;2.78;0.90;;;;;;;;;;4991667;28;20171;-70
2023/09/21 12:07:41;;;;;;;1.73;0.88;;;;;;;;;;5006373;28;20182;-70
2023/09/21 12:10:07;;;;;;;1.40;0.98;;;;;;;;;;5020964;23;20309;-73
2023/09/21 12:12:33;;;;;;;1.65;1.20;;;;;;;;;;5023774;28;20689;-72
2023/09/21 12:14:58;;;;;;;2.15;0.90;;;;;;;;;;5022582;28;20217;-72
2023/09/21 12:17:26;;;;;;;1.52;1.10;;;;;;;;;;5021190;28;20214;-71
2023/09/21 12:19:52;;;;;;;2.10;1.27;;;;;;;;;;5019870;28;20186;-71
2023/09/21 12:22:18;;;;;;;2.28;1.58;;;;;;;;;;5016870;28;20182;-71
2023/09/21 12:24:44;;;;;;;1.98;1.25;;;;;;;;;;5017071;28;20199;-71
2023/09/21 12:27:10;;;;;;;2.53;1.50;;;;;;;;;;5013651;28;20179;-72
2023/09/21 12:29:36;;;;;;;5.18;2.10;;;;;;;;;;5012776;28;20744;-72
2023/09/21 12:32:04;;;;;;;2.88;1.73;;;;;;;;;;5012518;28;20559;-72
2023/09/21 12:34:31;;;;;;;3.00;1.55;;;;;;;;;;5014572;28;20174;-72
2023/09/21 12:36:56;;;;;;;3.05;2.15;;;;;;;;;;5013494;28;20234;-72
2023/09/21 12:39:24;;;;;;;2.70;1.85;;;;;;;;;;5009760;28;20194;-72
2023/09/21 12:41:49;;;;;;;2.85;1.50;;;;;;;;;;5015065;28;20598;-71
2023/09/21 12:44:14;;;;;;;1.83;1.48;;;;;;;;;;5014347;28;20250;-72
2023/09/21 12:46:40;;;;;;;4.72;2.22;;;;;;;;;;5013734;28;20681;-71
2023/09/21 12:49:05;;;;;;;3.63;2.72;;;;;;;;;;5015610;28;20278;-72
2023/09/21 12:51:31;;;;;;;4.13;2.08;;;;;;;;;;5011474;28;20178;-72
2023/09/21 12:53:57;;;;;;;3.58;2.03;;;;;;;;;;5011364;28;20269;-72
2023/09/21 12:56:22;;;;;;;3.35;2.10;;;;;;;;;;5009086;28;20627;-72
2023/09/21 12:58:48;;;;;;;1.85;1.20;;;;;;;;;;5011694;28;20233;-72
2023/09/21 13:01:13;;;;;;;3.50;1.23;;;;;;;;;;5009603;28;20179;-71
2023/09/21 13:03:39;;;;;;;2.15;1.85;;;;;;;;;;5010213;28;20199;-72
2023/09/21 13:06:05;;;;;;;2.55;1.40;;;;;;;;;;5010397;28;20171;-72
2023/09/21 13:08:31;;;;;;;2.22;1.40;;;;;;;;;;5011017;28;20215;-72
2023/09/21 13:10:56;;;;;;;2.47;1.15;;;;;;;;;;5008644;28;20674;-72
2023/09/21 13:13:21;;;;;;;2.28;1.33;;;;;;;;;;5010792;28;20568;-72
2023/09/21 13:15:47;;;;;;;2.05;1.30;;;;;;;;;;5010430;28;20670;-73
2023/09/21 13:18:13;;;;;;;3.75;1.40;;;;;;;;;;5011642;28;20275;-70
2023/09/21 13:20:39;;;;;;;2.08;1.10;;;;;;;;;;5011822;28;20202;-71
2023/09/21 13:23:04;;;;;;;2.42;1.30;;;;;;;;;;5010946;28;20171;-72
2023/09/21 13:25:30;;;;;;;2.47;1.30;;;;;;;;;;5009937;28;20174;-71
2023/09/21 13:27:57;;;;;;;1.58;1.02;;;;;;;;;;5010892;28;20179;-71
2023/09/21 13:30:22;;;;;;;2.75;0.93;;;;;;;;;;5006695;28;20210;-71
2023/09/21 13:32:47;;;;;;;1.27;1.00;;;;;;;;;;5010913;28;20194;-71
2023/09/21 13:35:13;;;;;;;1.23;1.10;;;;;;;;;;5009412;28;20194;-71
2023/09/21 13:37:39;;;;;;;2.15;1.00;;;;;;;;;;5011104;28;20239;-71
2023/09/21 13:40:06;;;;;;;1.08;0.93;;;;;;;;;;5010657;28;20245;-71
2023/09/21 13:42:32;;;;;;;2.50;1.02;;;;;;;;;;5013841;28;20184;-71
2023/09/21 13:44:57;;;;;;;1.35;0.82;;;;;;;;;;5011740;28;20182;-71
2023/09/21 13:47:23;;;;;;;1.38;1.10;;;;;;;;;;5010861;28;20175;-71
2023/09/21 13:49:48;;;;;;;1.60;1.05;;;;;;;;;;5012176;28;20230;-71
2023/09/21 13:52:15;;;;;;;1.05;0.50;;;;;;;;;;5012959;28;20716;-71
2023/09/21 13:54:41;;;;;;;0.98;0.80;;;;;;;;;;5013810;28;20262;-71
2023/09/21 13:57:06;;;;;;;1.88;0.82;;;;;;;;;;5014159;28;20298;-71
2023/09/21 13:59:31;;;;;;;1.58;0.45;;;;;;;;;;5012500;28;20194;-71
2023/09/21 14:01:56;;;;;;;0.88;0.75;;;;;;;;;;5012599;28;20187;-72
2023/09/21 14:04:22;;;;;;;0.88;0.70;;;;;;;;;;5013305;28;20678;-71
2023/09/21 14:06:47;;;;;;;0.52;0.50;;;;;;;;;;5013300;28;20182;-72
2023/09/21 14:09:14;;;;;;;1.13;0.50;;;;;;;;;;5013296;28;20215;-72
2023/09/21 14:11:40;;;;;;;1.63;0.50;;;;;;;;;;5013089;28;20449;-72
2023/09/21 14:14:05;;;;;;;2.78;0.93;;;;;;;;;;5013471;28;20179;-72
2023/09/21 14:16:33;;;;;;;2.47;0.98;;;;;;;;;;5013038;28;20670;-71
2023/09/21 14:18:58;;;;;;;2.17;1.23;;;;;;;;;;5011267;28;20179;-71
2023/09/21 14:21:24;;;;;;;1.40;1.02;;;;;;;;;;5012987;28;20654;-72
2023/09/21 14:23:49;;;;;;;1.40;0.60;;;;;;;;;;5011730;28;20687;-71
2023/09/21 14:26:14;;;;;;;3.80;1.27;;;;;;;;;;5013733;28;20163;-72
2023/09/21 14:28:39;;;;;;;0.82;0.68;;;;;;;;;;5013538;28;20568;-71
2023/09/21 14:31:04;;;;;;;0.82;0.60;;;;;;;;;;5012369;28;20297;-71
2023/09/21 14:33:30;;;;;;;1.75;0.80;;;;;;;;;;5013254;28;20598;-71
2023/09/21 14:35:56;;;;;;;1.60;0.95;;;;;;;;;;5013383;28;20183;-72
2023/09/21 14:38:21;;;;;;;1.85;1.00;;;;;;;;;;5013462;28;20206;-71